BRA1723 SBKP-SBFL
Flight info
| Callsign | BRA1723 |
|---|---|
| Flight time | 0h 52m |
| Altitude | 34000 |
| Route | SOVSI DCT PUBIS |
| Aircraft | A21N/M-SDE2E3FGHIRWXY/LB1 |
Departure
| Time | 2026-04-26 11:04 |
|---|---|
| Airport | Viracopos International Airport (SBKP) |
Arrival
| Time | 2026-04-26 11:57 |
|---|---|
| Airport | Hercílio Luz International Airport (SBFL) |
| Time | Latitude | Longitude | Altitude | Speed | Heading |
|---|---|---|---|---|---|
| 2026-04-26 10:22 | -23.00424 | -47.14821 | 2163 ft | 0 kts | 218° |
| 2026-04-26 10:38 | -23.00408 | -47.14804 | 2155 ft | 4 kts | 239° |
| 2026-04-26 10:39 | -23.00403 | -47.14783 | 2155 ft | 4 kts | 282° |
| 2026-04-26 10:39 | -23.00410 | -47.14765 | 2154 ft | 0 kts | 308° |
| 2026-04-26 11:01 | -23.00400 | -47.14779 | 2186 ft | 4 kts | 309° |
| 2026-04-26 11:01 | -23.00375 | -47.14813 | 2163 ft | 7 kts | 307° |
| 2026-04-26 11:01 | -23.00337 | -47.14867 | 2160 ft | 11 kts | 307° |
| 2026-04-26 11:01 | -23.00285 | -47.14940 | 2163 ft | 14 kts | 308° |
| 2026-04-26 11:02 | -23.00210 | -47.15013 | 2158 ft | 16 kts | 356° |
| 2026-04-26 11:02 | -23.00113 | -47.14945 | 2159 ft | 18 kts | 46° |
| 2026-04-26 11:02 | -23.00031 | -47.14869 | 2160 ft | 10 kts | 51° |
| 2026-04-26 11:02 | -22.99978 | -47.14807 | 2163 ft | 12 kts | 39° |
| 2026-04-26 11:03 | -22.99906 | -47.14743 | 2155 ft | 14 kts | 40° |
| 2026-04-26 11:03 | -22.99890 | -47.14641 | 2155 ft | 15 kts | 121° |
| 2026-04-26 11:03 | -22.99907 | -47.14615 | 2156 ft | 3 kts | 127° |
| 2026-04-26 11:03 | -22.99929 | -47.14584 | 2159 ft | 12 kts | 127° |
| 2026-04-26 11:04 | -23.00184 | -47.14224 | 2162 ft | 103 kts | 128° |
| 2026-04-26 11:04 | -23.00734 | -47.13451 | 2156 ft | 149 kts | 128° |
| 2026-04-26 11:04 | -23.01213 | -47.12785 | 2167 ft | 176 kts | 127° |
| 2026-04-26 11:04 | -23.02187 | -47.11442 | 2966 ft | 170 kts | 126° |
| 2026-04-26 11:05 | -23.02697 | -47.10764 | 3203 ft | 181 kts | 133° |
| 2026-04-26 11:05 | -23.03900 | -47.10070 | 3608 ft | 211 kts | 169° |
| 2026-04-26 11:05 | -23.05396 | -47.10231 | 4154 ft | 229 kts | 204° |
| 2026-04-26 11:05 | -23.06854 | -47.11105 | 4784 ft | 252 kts | 214° |
| 2026-04-26 11:06 | -23.08418 | -47.12140 | 5441 ft | 270 kts | 213° |
| 2026-04-26 11:06 | -23.10049 | -47.13206 | 6383 ft | 276 kts | 213° |
| 2026-04-26 11:06 | -23.11610 | -47.14413 | 7339 ft | 276 kts | 222° |
| 2026-04-26 11:06 | -23.13002 | -47.15732 | 8278 ft | 278 kts | 223° |
| 2026-04-26 11:07 | -23.14509 | -47.17171 | 9274 ft | 282 kts | 222° |
| 2026-04-26 11:07 | -23.15991 | -47.18585 | 10192 ft | 286 kts | 222° |
| 2026-04-26 11:07 | -23.17517 | -47.20034 | 10732 ft | 304 kts | 221° |
| 2026-04-26 11:07 | -23.19163 | -47.21585 | 11197 ft | 321 kts | 220° |
| 2026-04-26 11:08 | -23.21090 | -47.22867 | 11890 ft | 330 kts | 202° |
| 2026-04-26 11:08 | -23.23109 | -47.23520 | 12637 ft | 334 kts | 195° |
| 2026-04-26 11:08 | -23.25386 | -47.24112 | 13455 ft | 338 kts | 194° |
| 2026-04-26 11:08 | -23.27695 | -47.24708 | 14199 ft | 343 kts | 195° |
| 2026-04-26 11:09 | -23.30043 | -47.25324 | 14902 ft | 347 kts | 195° |
| 2026-04-26 11:09 | -23.32363 | -47.25943 | 15597 ft | 350 kts | 196° |
| 2026-04-26 11:09 | -23.34738 | -47.26584 | 16278 ft | 354 kts | 197° |
| 2026-04-26 11:09 | -23.37135 | -47.27232 | 16776 ft | 357 kts | 197° |
| 2026-04-26 11:10 | -23.39566 | -47.27889 | 17023 ft | 359 kts | 197° |
| 2026-04-26 11:10 | -23.41961 | -47.28538 | 17056 ft | 359 kts | 197° |
| 2026-04-26 11:10 | -23.44417 | -47.29204 | 17042 ft | 359 kts | 197° |
| 2026-04-26 11:10 | -23.46917 | -47.29882 | 17034 ft | 358 kts | 197° |
| 2026-04-26 11:11 | -23.49267 | -47.30520 | 17022 ft | 358 kts | 197° |
| 2026-04-26 11:11 | -23.51681 | -47.31177 | 17023 ft | 358 kts | 197° |
| 2026-04-26 11:11 | -23.54104 | -47.31835 | 17026 ft | 358 kts | 197° |
| 2026-04-26 11:11 | -23.56438 | -47.32470 | 17387 ft | 359 kts | 197° |
| 2026-04-26 11:12 | -23.58893 | -47.33134 | 18004 ft | 364 kts | 197° |
| 2026-04-26 11:12 | -23.61359 | -47.33805 | 18609 ft | 367 kts | 198° |
| 2026-04-26 11:12 | -23.63852 | -47.34483 | 19179 ft | 370 kts | 198° |
| 2026-04-26 11:12 | -23.66356 | -47.35165 | 19746 ft | 372 kts | 198° |
| 2026-04-26 11:13 | -23.68881 | -47.35852 | 20326 ft | 375 kts | 198° |
| 2026-04-26 11:13 | -23.71432 | -47.36547 | 20881 ft | 378 kts | 198° |
| 2026-04-26 11:13 | -23.73962 | -47.37236 | 21426 ft | 381 kts | 198° |
| 2026-04-26 11:13 | -23.76539 | -47.37938 | 21978 ft | 383 kts | 198° |
| 2026-04-26 11:14 | -23.79137 | -47.38646 | 22534 ft | 386 kts | 198° |
| 2026-04-26 11:14 | -23.81740 | -47.39354 | 23070 ft | 389 kts | 198° |
| 2026-04-26 11:14 | -23.84387 | -47.40075 | 23603 ft | 391 kts | 198° |
| 2026-04-26 11:14 | -23.86959 | -47.40776 | 24002 ft | 394 kts | 199° |
| 2026-04-26 11:15 | -23.89636 | -47.41507 | 24425 ft | 397 kts | 199° |
| 2026-04-26 11:15 | -23.92332 | -47.42244 | 24843 ft | 400 kts | 199° |
| 2026-04-26 11:15 | -23.95036 | -47.42983 | 25261 ft | 402 kts | 199° |
| 2026-04-26 11:15 | -23.97763 | -47.43728 | 25691 ft | 404 kts | 199° |
| 2026-04-26 11:16 | -24.00502 | -47.44478 | 26112 ft | 407 kts | 199° |
| 2026-04-26 11:16 | -24.03299 | -47.45245 | 26526 ft | 410 kts | 199° |
| 2026-04-26 11:16 | -24.06067 | -47.46002 | 26936 ft | 412 kts | 200° |
| 2026-04-26 11:16 | -24.08820 | -47.46754 | 27341 ft | 414 kts | 200° |
| 2026-04-26 11:17 | -24.11629 | -47.47522 | 27739 ft | 417 kts | 200° |
| 2026-04-26 11:17 | -24.14447 | -47.48324 | 28142 ft | 418 kts | 201° |
| 2026-04-26 11:17 | -24.17270 | -47.49137 | 28533 ft | 421 kts | 201° |
| 2026-04-26 11:17 | -24.20162 | -47.49967 | 28913 ft | 424 kts | 201° |
| 2026-04-26 11:18 | -24.22991 | -47.50784 | 29289 ft | 426 kts | 201° |
| 2026-04-26 11:18 | -24.25885 | -47.51619 | 29667 ft | 428 kts | 201° |
| 2026-04-26 11:18 | -24.28761 | -47.52443 | 30017 ft | 431 kts | 201° |
| 2026-04-26 11:18 | -24.31673 | -47.53280 | 30324 ft | 433 kts | 201° |
| 2026-04-26 11:19 | -24.34593 | -47.54120 | 30649 ft | 435 kts | 201° |
| 2026-04-26 11:19 | -24.37522 | -47.54962 | 30981 ft | 436 kts | 201° |
| 2026-04-26 11:19 | -24.40466 | -47.55806 | 31369 ft | 436 kts | 201° |
| 2026-04-26 11:19 | -24.43396 | -47.56648 | 31787 ft | 435 kts | 201° |
| 2026-04-26 11:20 | -24.46315 | -47.57488 | 32224 ft | 433 kts | 201° |
| 2026-04-26 11:20 | -24.48284 | -47.58054 | 32508 ft | 432 kts | 201° |
| 2026-04-26 11:20 | -24.52142 | -47.59166 | 33067 ft | 430 kts | 201° |
| 2026-04-26 11:20 | -24.55030 | -47.59998 | 33458 ft | 429 kts | 201° |
| 2026-04-26 11:21 | -24.57963 | -47.60844 | 33829 ft | 429 kts | 201° |
| 2026-04-26 11:21 | -24.60853 | -47.61678 | 33964 ft | 430 kts | 201° |
| 2026-04-26 11:21 | -24.66578 | -47.63326 | 33957 ft | 428 kts | 201° |
| 2026-04-26 11:22 | -24.72380 | -47.65003 | 33950 ft | 428 kts | 201° |
| 2026-04-26 11:22 | -24.78156 | -47.66677 | 33944 ft | 429 kts | 201° |
| 2026-04-26 11:23 | -24.83923 | -47.68343 | 33935 ft | 428 kts | 201° |
| 2026-04-26 11:23 | -24.89697 | -47.70019 | 33934 ft | 428 kts | 201° |
| 2026-04-26 11:24 | -24.95469 | -47.71693 | 33932 ft | 428 kts | 201° |
| 2026-04-26 11:24 | -25.01244 | -47.73370 | 33935 ft | 428 kts | 201° |
| 2026-04-26 11:25 | -25.07008 | -47.75044 | 33936 ft | 428 kts | 201° |
| 2026-04-26 11:25 | -25.12748 | -47.76712 | 33936 ft | 428 kts | 202° |
| 2026-04-26 11:26 | -25.18521 | -47.78392 | 33934 ft | 428 kts | 202° |
| 2026-04-26 11:26 | -25.24221 | -47.80055 | 33928 ft | 428 kts | 202° |
| 2026-04-26 11:27 | -25.29987 | -47.81735 | 33923 ft | 428 kts | 202° |
| 2026-04-26 11:27 | -25.35719 | -47.83411 | 33928 ft | 428 kts | 202° |
| 2026-04-26 11:28 | -25.41448 | -47.85081 | 33931 ft | 428 kts | 202° |
| 2026-04-26 11:28 | -25.47289 | -47.86793 | 33927 ft | 428 kts | 202° |
| 2026-04-26 11:29 | -25.53062 | -47.88487 | 33932 ft | 428 kts | 202° |
| 2026-04-26 11:29 | -25.58828 | -47.90176 | 33930 ft | 428 kts | 202° |
| 2026-04-26 11:30 | -25.63616 | -47.91586 | 33929 ft | 427 kts | 202° |
| 2026-04-26 11:30 | -25.70266 | -47.93532 | 33929 ft | 427 kts | 202° |
| 2026-04-26 11:31 | -25.73848 | -47.94577 | 33910 ft | 427 kts | 202° |
| 2026-04-26 11:31 | -25.79521 | -47.96251 | 33918 ft | 427 kts | 203° |
| 2026-04-26 11:32 | -25.85373 | -47.97980 | 33926 ft | 427 kts | 203° |
| 2026-04-26 11:32 | -25.91090 | -47.99663 | 33924 ft | 427 kts | 203° |
| 2026-04-26 11:33 | -25.96850 | -48.01363 | 33914 ft | 427 kts | 203° |
| 2026-04-26 11:33 | -26.02527 | -48.03034 | 33440 ft | 416 kts | 203° |
| 2026-04-26 11:34 | -26.05281 | -48.03860 | 32940 ft | 412 kts | 204° |
| 2026-04-26 11:34 | -26.08061 | -48.04740 | 32411 ft | 409 kts | 205° |
| 2026-04-26 11:34 | -26.10796 | -48.05614 | 31890 ft | 408 kts | 205° |
| 2026-04-26 11:34 | -26.13521 | -48.06483 | 31372 ft | 406 kts | 204° |
| 2026-04-26 11:35 | -26.16241 | -48.07344 | 30869 ft | 404 kts | 204° |
| 2026-04-26 11:35 | -26.18976 | -48.08208 | 30393 ft | 402 kts | 204° |
| 2026-04-26 11:35 | -26.21656 | -48.09054 | 29908 ft | 400 kts | 204° |
| 2026-04-26 11:35 | -26.24336 | -48.09901 | 29345 ft | 398 kts | 204° |
| 2026-04-26 11:36 | -26.26992 | -48.10739 | 28812 ft | 396 kts | 204° |
| 2026-04-26 11:36 | -26.29704 | -48.11596 | 28297 ft | 393 kts | 204° |
| 2026-04-26 11:36 | -26.32339 | -48.12430 | 27818 ft | 391 kts | 204° |
| 2026-04-26 11:36 | -26.34850 | -48.13223 | 27367 ft | 388 kts | 204° |
| 2026-04-26 11:37 | -26.37449 | -48.14043 | 26877 ft | 386 kts | 204° |
| 2026-04-26 11:37 | -26.40027 | -48.14860 | 26392 ft | 384 kts | 204° |
| 2026-04-26 11:37 | -26.42597 | -48.15675 | 25936 ft | 381 kts | 204° |
| 2026-04-26 11:37 | -26.45124 | -48.16476 | 25468 ft | 376 kts | 204° |
| 2026-04-26 11:38 | -26.47638 | -48.17273 | 25022 ft | 372 kts | 204° |
| 2026-04-26 11:38 | -26.50110 | -48.18058 | 24543 ft | 368 kts | 204° |
| 2026-04-26 11:38 | -26.52564 | -48.18837 | 24071 ft | 365 kts | 204° |
| 2026-04-26 11:38 | -26.55006 | -48.19614 | 23618 ft | 362 kts | 204° |
| 2026-04-26 11:39 | -26.57457 | -48.20392 | 23111 ft | 360 kts | 204° |
| 2026-04-26 11:39 | -26.59858 | -48.21156 | 22618 ft | 358 kts | 204° |
| 2026-04-26 11:39 | -26.62240 | -48.21914 | 22144 ft | 354 kts | 204° |
| 2026-04-26 11:39 | -26.64603 | -48.22665 | 21685 ft | 350 kts | 204° |
| 2026-04-26 11:40 | -26.66873 | -48.23387 | 21239 ft | 346 kts | 204° |
| 2026-04-26 11:40 | -26.69153 | -48.24114 | 20817 ft | 342 kts | 204° |
| 2026-04-26 11:40 | -26.71429 | -48.24838 | 20408 ft | 338 kts | 204° |
| 2026-04-26 11:40 | -26.73658 | -48.25548 | 20011 ft | 334 kts | 204° |
| 2026-04-26 11:41 | -26.75890 | -48.26259 | 19607 ft | 331 kts | 204° |
| 2026-04-26 11:42 | -26.91272 | -48.31175 | 16850 ft | 330 kts | 204° |
| 2026-04-26 11:43 | -26.93504 | -48.31889 | 16472 ft | 330 kts | 204° |
| 2026-04-26 11:43 | -26.95711 | -48.32595 | 16114 ft | 330 kts | 204° |
| 2026-04-26 11:43 | -26.97920 | -48.33302 | 15762 ft | 329 kts | 204° |
| 2026-04-26 11:43 | -27.00130 | -48.34010 | 15412 ft | 329 kts | 204° |
| 2026-04-26 11:44 | -27.02308 | -48.34687 | 15063 ft | 330 kts | 200° |
| 2026-04-26 11:44 | -27.04659 | -48.34920 | 14682 ft | 342 kts | 186° |
| 2026-04-26 11:44 | -27.07046 | -48.34789 | 14260 ft | 343 kts | 184° |
| 2026-04-26 11:44 | -27.09423 | -48.34622 | 13814 ft | 341 kts | 184° |
| 2026-04-26 11:45 | -27.11790 | -48.34464 | 13331 ft | 340 kts | 184° |
| 2026-04-26 11:45 | -27.14112 | -48.34319 | 12870 ft | 337 kts | 184° |
| 2026-04-26 11:45 | -27.16447 | -48.34178 | 12440 ft | 336 kts | 184° |
| 2026-04-26 11:45 | -27.18790 | -48.34042 | 12019 ft | 336 kts | 184° |
| 2026-04-26 11:46 | -27.21127 | -48.33907 | 11596 ft | 336 kts | 184° |
| 2026-04-26 11:46 | -27.23466 | -48.33774 | 11359 ft | 337 kts | 184° |
| 2026-04-26 11:46 | -27.25810 | -48.33639 | 11194 ft | 337 kts | 184° |
| 2026-04-26 11:46 | -27.28085 | -48.33507 | 11016 ft | 334 kts | 184° |
| 2026-04-26 11:47 | -27.30385 | -48.33374 | 10648 ft | 329 kts | 184° |
| 2026-04-26 11:47 | -27.32674 | -48.33243 | 10200 ft | 329 kts | 184° |
| 2026-04-26 11:47 | -27.34904 | -48.33113 | 9956 ft | 321 kts | 184° |
| 2026-04-26 11:47 | -27.37128 | -48.32982 | 9709 ft | 311 kts | 184° |
| 2026-04-26 11:48 | -27.39254 | -48.32859 | 9329 ft | 308 kts | 184° |
| 2026-04-26 11:48 | -27.41394 | -48.32737 | 8846 ft | 308 kts | 183° |
| 2026-04-26 11:48 | -27.43450 | -48.32621 | 8390 ft | 307 kts | 183° |
| 2026-04-26 11:48 | -27.45580 | -48.32499 | 7940 ft | 305 kts | 183° |
| 2026-04-26 11:49 | -27.47720 | -48.32376 | 7543 ft | 307 kts | 182° |
| 2026-04-26 11:49 | -27.49853 | -48.32253 | 7253 ft | 304 kts | 181° |
| 2026-04-26 11:49 | -27.51941 | -48.32130 | 7072 ft | 298 kts | 181° |
| 2026-04-26 11:49 | -27.53998 | -48.32010 | 6927 ft | 292 kts | 182° |
| 2026-04-26 11:50 | -27.55980 | -48.31895 | 6797 ft | 284 kts | 181° |
| 2026-04-26 11:50 | -27.57916 | -48.31782 | 6646 ft | 272 kts | 182° |
| 2026-04-26 11:50 | -27.59764 | -48.31674 | 6536 ft | 259 kts | 181° |
| 2026-04-26 11:50 | -27.61532 | -48.31571 | 6423 ft | 250 kts | 181° |
| 2026-04-26 11:51 | -27.63264 | -48.31471 | 6318 ft | 242 kts | 182° |
| 2026-04-26 11:51 | -27.64373 | -48.31408 | 6244 ft | 238 kts | 181° |
| 2026-04-26 11:51 | -27.66522 | -48.31285 | 6060 ft | 228 kts | 182° |
| 2026-04-26 11:51 | -27.67573 | -48.31340 | 5819 ft | 228 kts | 194° |
| 2026-04-26 11:52 | -27.68966 | -48.32016 | 5575 ft | 222 kts | 216° |
| 2026-04-26 11:52 | -27.70261 | -48.32923 | 5378 ft | 224 kts | 215° |
| 2026-04-26 11:52 | -27.71611 | -48.33854 | 5247 ft | 232 kts | 217° |
| 2026-04-26 11:52 | -27.73019 | -48.34824 | 5155 ft | 242 kts | 216° |
| 2026-04-26 11:53 | -27.74343 | -48.36017 | 5042 ft | 248 kts | 232° |
| 2026-04-26 11:53 | -27.75046 | -48.37789 | 4901 ft | 251 kts | 263° |
| 2026-04-26 11:53 | -27.74860 | -48.39708 | 4685 ft | 246 kts | 291° |
| 2026-04-26 11:54 | -27.73213 | -48.42870 | 4139 ft | 217 kts | 303° |
| 2026-04-26 11:54 | -27.72446 | -48.44275 | 3886 ft | 202 kts | 303° |
| 2026-04-26 11:54 | -27.71767 | -48.45521 | 3694 ft | 173 kts | 303° |
| 2026-04-26 11:54 | -27.71205 | -48.46558 | 3444 ft | 138 kts | 303° |
| 2026-04-26 11:55 | -27.70729 | -48.47443 | 3002 ft | 130 kts | 303° |
| 2026-04-26 11:55 | -27.70268 | -48.48352 | 2354 ft | 136 kts | 301° |
| 2026-04-26 11:55 | -27.69837 | -48.49286 | 1611 ft | 134 kts | 302° |
| 2026-04-26 11:55 | -27.69278 | -48.50142 | 939 ft | 136 kts | 313° |
| 2026-04-26 11:56 | -27.68724 | -48.50971 | 592 ft | 131 kts | 303° |
| 2026-04-26 11:56 | -27.68283 | -48.51836 | 397 ft | 126 kts | 299° |
| 2026-04-26 11:56 | -27.67867 | -48.52729 | 172 ft | 130 kts | 301° |
| 2026-04-26 11:56 | -27.67427 | -48.53540 | 30 ft | 123 kts | 303° |
| 2026-04-26 11:57 | -27.66999 | -48.54285 | 30 ft | 102 kts | 296° |
| 2026-04-26 11:57 | -27.66692 | -48.54914 | 29 ft | 71 kts | 302° |
| 2026-04-26 11:57 | -27.66583 | -48.55107 | 29 ft | 1 kts | 289° |
| 2026-04-26 11:57 | -27.66590 | -48.55124 | 29 ft | 4 kts | 224° |
| 2026-04-26 11:58 | -27.66625 | -48.55140 | 29 ft | 7 kts | 184° |
| 2026-04-26 11:58 | -27.66684 | -48.55131 | 30 ft | 10 kts | 165° |
| 2026-04-26 11:58 | -27.66757 | -48.55104 | 30 ft | 12 kts | 151° |
| 2026-04-26 11:58 | -27.66822 | -48.55027 | 30 ft | 15 kts | 127° |
| 2026-04-26 11:59 | -27.66881 | -48.54923 | 29 ft | 17 kts | 118° |
| 2026-04-26 11:59 | -27.66932 | -48.54818 | 29 ft | 5 kts | 122° |
| 2026-04-26 11:59 | -27.66940 | -48.54804 | 29 ft | 0 kts | 123° |